Pagina principale
METAR-TAF:

METAR-TAF

Aeroporti :

Aeroporto di Palermo-Punta Raisi

Palermo, Italia

latitudine: 38-11N, longitudine: 013-06E, altezza: 21 m

Osservazione

Il bollettino è stato emesso 41 minuti fa, alle 13:20 UTC
Vento 7 kt da ovest/sud-ovest
Temperature 29°C
Umidità 66%
Pressione 1017 hPa
Visibilità 10 km o più
Poco nuvoloso ad un'altezza di 2500 ft

METAR: LICJ 271320Z 25007KT 9999 FEW025 29/22 Q1017

Ora: 16:01 (14:01 UTC)

Previsione

Il bollettino è stato emesso 2 ore e 24 minuti fa, alle 11:37 UTC
Previsione valida dal 27 alle 12 UTC al 28 alle 12 UTC
Vento 12 kt da sud-ovest
Visibilità 10 km o più
Poco nuvoloso ad un'altezza di 4000 ft
Evoluzione graduale
dal 27 alle 20 UTC al 27 alle 22 UTC
Vento 12 kt da nord-ovest

TAF: LICJ 271137Z 2712/2812 23012KT 9999 FEW040 BECMG 2720/2722 32012KT

Osservazioni e previsioni meteorologiche di più di 4000 aeroporti (messaggi METAR e TAF).

Le stazioni disponibili sono rappresentate dai dischi gialli e rossi sulla carta.

Puntare il mouse per vedere il nome della stazione.

Clicca sopra per visualizzare le osservazioni e previsioni meteorologiche.

Per cambiare la mappa : fare clic sui pulsanti verdi con una croce nera per ingrandire, il pulsante verde con un trattino per diminuire, o sulla freccia verde per le mappe adiacenti.


METAR-TAF: